Time;durP1;ratioP1;P1;durP2;ratioP2;P2;SDS_P1;SDS_P2;PMS_P1;PMS_P2;Temp;Humidity;BMP_temperature;BMP_pressure;BME280_temperature;BME280_humidity;BME280_pressure;Samples;Min_cycle;Max_cycle;Signal;HPM_P1;HPM_P2
2021/09/10 00:01:37;;;;;;;8.80;6.55;;;20.50;99.90;;;;;;5095770;28;20024;-65
2021/09/10 00:04:03;;;;;;;8.38;6.72;;;20.60;99.90;;;;;;5095721;28;20362;-65
2021/09/10 00:06:30;;;;;;;8.13;6.40;;;20.60;99.90;;;;;;5095550;28;20027;-64
2021/09/10 00:08:56;;;;;;;;;;;20.50;99.90;;;;;;5095897;28;20055;-65
2021/09/10 00:11:22;;;;;;;9.05;7.20;;;20.50;99.90;;;;;;5077225;28;19904;-65
2021/09/10 00:13:47;;;;;;;9.32;7.20;;;20.40;99.90;;;;;;5077609;28;20024;-65
2021/09/10 00:16:13;;;;;;;10.75;6.72;;;20.40;99.90;;;;;;5095359;28;20069;-65
2021/09/10 00:18:38;;;;;;;9.00;7.30;;;20.40;99.90;;;;;;5095295;28;20028;-65
2021/09/10 00:21:04;;;;;;;9.80;7.03;;;20.30;99.90;;;;;;5095339;28;20028;-66
2021/09/10 00:23:30;;;;;;;10.15;7.43;;;20.40;99.90;;;;;;5097175;28;20021;-64
2021/09/10 00:25:55;;;;;;;10.05;6.82;;;20.40;99.90;;;;;;5095354;28;20028;-64
2021/09/10 00:28:23;;;;;;;7.82;7.03;;;20.30;99.90;;;;;;5095664;28;20504;-66
2021/09/10 00:30:49;;;;;;;7.72;6.93;;;20.50;99.90;;;;;;5095562;28;20116;-65
2021/09/10 00:33:15;;;;;;;9.63;7.18;;;20.70;99.90;;;;;;5095327;28;20052;-66
2021/09/10 00:35:40;;;;;;;7.78;6.95;;;20.50;99.90;;;;;;5095714;28;20024;-65
2021/09/10 00:38:06;;;;;;;8.43;7.35;;;20.50;99.90;;;;;;5095227;28;20028;-65
2021/09/10 00:40:31;;;;;;;9.20;7.10;;;20.50;99.90;;;;;;5094973;28;20077;-65
2021/09/10 00:42:57;;;;;;;9.52;7.80;;;20.40;99.90;;;;;;5095125;28;20020;-66
2021/09/10 00:45:23;;;;;;;9.40;7.38;;;20.30;99.90;;;;;;5095384;28;20052;-64
2021/09/10 00:47:48;;;;;;;8.80;7.38;;;20.30;99.90;;;;;;5076938;28;20089;-65
2021/09/10 00:50:14;;;;;;;9.68;7.15;;;20.30;99.90;;;;;;5094617;28;20043;-65
2021/09/10 00:52:41;;;;;;;9.80;7.72;;;20.20;99.90;;;;;;5094626;28;20546;-65
2021/09/10 00:55:07;;;;;;;9.02;7.28;;;20.20;99.90;;;;;;5076626;28;20028;-66
2021/09/10 00:57:33;;;;;;;10.57;7.05;;;20.10;99.90;;;;;;5095010;28;20388;-65
2021/09/10 00:59:58;;;;;;;9.50;7.85;;;20.10;99.90;;;;;;5094791;28;20032;-65
2021/09/10 01:02:24;;;;;;;8.95;7.35;;;20.10;99.90;;;;;;5094933;28;20024;-65
2021/09/10 01:04:50;;;;;;;13.95;7.25;;;20.20;99.90;;;;;;5094728;28;20052;-66
2021/09/10 01:07:16;;;;;;;9.85;7.68;;;20.20;99.90;;;;;;5094408;28;20032;-64
2021/09/10 01:09:42;;;;;;;;;;;20.10;99.90;;;;;;5094775;28;20020;-65
2021/09/10 01:12:08;;;;;;;9.23;7.25;;;20.10;99.90;;;;;;5094627;28;19915;-65
2021/09/10 01:14:34;;;;;;;10.40;7.93;;;20.10;99.90;;;;;;5094513;28;20437;-66
2021/09/10 01:17:00;;;;;;;9.18;7.93;;;20.10;99.90;;;;;;5094405;28;20048;-65
2021/09/10 01:19:27;;;;;;;;;;;20.10;99.90;;;;;;5094575;28;20032;-64
2021/09/10 01:22:02;;;;;;;10.10;8.10;;;20.20;99.90;;;;;;5094323;28;19923;-64
2021/09/10 01:25:26;;;;;;;11.02;7.72;;;20.30;99.90;;;;;;5076065;28;20468;-65
2021/09/10 01:27:55;;;;;;;10.27;7.85;;;20.20;99.90;;;;;;5090382;28;20061;-64
2021/09/10 01:30:23;;;;;;;9.93;7.50;;;20.20;99.90;;;;;;5094001;28;20020;-64
2021/09/10 01:32:50;;;;;;;12.77;8.35;;;20.20;99.90;;;;;;5094504;28;20095;-63
2021/09/10 01:35:16;;;;;;;9.07;7.10;;;20.20;99.90;;;;;;5094120;28;20039;-64
2021/09/10 01:37:42;;;;;;;;;;;20.10;99.90;;;;;;5095273;28;20020;-64
2021/09/10 01:40:09;;;;;;;10.23;8.30;;;20.10;99.90;;;;;;5093676;28;20365;-64
2021/09/10 01:42:35;;;;;;;9.20;7.75;;;20.00;99.90;;;;;;5093866;28;20048;-64
2021/09/10 01:45:01;;;;;;;9.98;7.90;;;20.00;99.90;;;;;;5093708;28;20030;-64
2021/09/10 01:47:27;;;;;;;9.10;7.93;;;20.00;99.90;;;;;;5093740;28;20099;-65
2021/09/10 01:49:52;;;;;;;9.80;7.68;;;19.90;99.90;;;;;;5093616;28;20055;-65
2021/09/10 01:52:18;;;;;;;12.13;7.80;;;19.90;99.90;;;;;;5093740;28;20429;-64
2021/09/10 01:54:44;;;;;;;10.27;8.15;;;19.90;99.90;;;;;;5093541;28;20020;-64
2021/09/10 01:57:10;;;;;;;9.50;7.65;;;20.00;99.90;;;;;;5093974;28;20052;-64
2021/09/10 01:59:36;;;;;;;12.07;7.53;;;20.10;99.90;;;;;;5093387;28;20059;-64
2021/09/10 02:02:01;;;;;;;9.85;7.82;;;20.10;99.90;;;;;;5093548;28;20027;-64
2021/09/10 02:04:27;;;;;;;10.98;8.25;;;19.90;99.90;;;;;;5093422;28;20115;-64
2021/09/10 02:06:53;;;;;;;10.23;7.75;;;19.80;99.90;;;;;;5093250;28;20071;-64
2021/09/10 02:09:18;;;;;;;8.98;7.60;;;19.70;99.90;;;;;;5093438;28;20066;-65
2021/09/10 02:11:44;;;;;;;13.65;8.55;;;19.70;99.90;;;;;;5093679;28;20450;-65
2021/09/10 02:14:10;;;;;;;11.07;8.50;;;19.70;99.90;;;;;;5093541;28;20486;-65
2021/09/10 02:16:35;;;;;;;10.32;8.55;;;19.70;99.90;;;;;;5093343;28;20038;-65
2021/09/10 02:19:01;;;;;;;10.73;7.90;;;19.80;99.90;;;;;;5093562;28;20028;-65
2021/09/10 02:21:27;;;;;;;9.35;8.35;;;19.80;99.90;;;;;;5075319;28;20032;-65
2021/09/10 02:23:52;;;;;;;8.73;7.82;;;19.70;99.90;;;;;;5093361;28;20078;-65
2021/09/10 02:26:18;;;;;;;9.63;7.63;;;19.80;99.90;;;;;;5093262;28;20392;-65
2021/09/10 02:28:43;;;;;;;8.63;7.72;;;19.70;99.90;;;;;;5093168;28;20118;-65
2021/09/10 02:31:09;;;;;;;12.80;9.02;;;19.70;99.90;;;;;;5075098;28;20058;-65
2021/09/10 02:33:35;;;;;;;9.75;8.13;;;19.70;99.90;;;;;;5093753;28;20461;-65
2021/09/10 02:36:00;;;;;;;8.88;7.68;;;19.70;99.90;;;;;;5093217;28;20078;-65
2021/09/10 02:38:26;;;;;;;10.20;7.88;;;19.70;99.90;;;;;;5093034;28;20076;-65
2021/09/10 02:40:52;;;;;;;10.85;8.27;;;19.70;99.90;;;;;;5093164;28;20043;-65
2021/09/10 02:43:18;;;;;;;;;;;19.70;99.90;;;;;;5093373;28;20035;-65
2021/09/10 02:45:44;;;;;;;9.50;7.93;;;19.70;99.90;;;;;;5093099;28;19904;-65
2021/09/10 02:48:10;;;;;;;10.48;8.18;;;19.70;99.90;;;;;;5093068;28;20029;-65
2021/09/10 02:50:36;;;;;;;10.35;8.88;;;19.60;99.90;;;;;;5093144;28;20127;-65
2021/09/10 02:53:02;;;;;;;12.80;7.80;;;19.60;99.90;;;;;;5093418;28;20024;-64
2021/09/10 02:55:27;;;;;;;9.73;8.73;;;19.70;99.90;;;;;;5093220;28;20039;-64
2021/09/10 02:57:53;;;;;;;9.43;7.40;;;19.70;99.90;;;;;;5074815;28;20054;-65
2021/09/10 03:00:19;;;;;;;9.68;7.82;;;19.70;99.90;;;;;;5093678;28;20086;-62
2021/09/10 03:02:45;;;;;;;9.00;7.32;;;19.70;99.90;;;;;;5094089;28;20091;-63
2021/09/10 03:05:11;;;;;;;9.65;8.15;;;19.70;99.90;;;;;;5092972;28;20107;-64
2021/09/10 03:07:37;;;;;;;10.27;8.20;;;19.70;99.90;;;;;;5092887;28;20016;-64
2021/09/10 03:10:06;;;;;;;9.40;7.10;;;19.60;99.90;;;;;;5092746;28;20031;-64
2021/09/10 03:12:33;;;;;;;9.40;7.70;;;19.70;99.90;;;;;;5092676;28;20036;-64
2021/09/10 03:14:59;;;;;;;9.32;7.78;;;19.80;99.90;;;;;;5092603;28;20038;-64
2021/09/10 03:17:24;;;;;;;11.00;7.63;;;19.80;99.90;;;;;;5092492;28;20032;-64
2021/09/10 03:19:50;;;;;;;8.35;7.22;;;19.70;99.90;;;;;;5092418;28;20036;-64
2021/09/10 03:22:16;;;;;;;8.57;7.35;;;19.80;99.90;;;;;;5092984;28;20040;-64
2021/09/10 03:24:41;;;;;;;8.50;7.53;;;19.70;99.90;;;;;;5092550;28;20031;-64
2021/09/10 03:27:07;;;;;;;8.63;7.63;;;19.70;99.90;;;;;;5093046;28;20480;-64
2021/09/10 03:29:32;;;;;;;7.78;6.97;;;19.70;99.90;;;;;;5093299;28;20085;-64
2021/09/10 03:31:58;;;;;;;8.82;6.93;;;19.70;99.90;;;;;;5096258;28;20036;-64
2021/09/10 03:34:28;;;;;;;9.40;7.90;;;19.70;99.90;;;;;;5096252;28;20039;-64
2021/09/10 03:36:54;;;;;;;9.30;7.55;;;19.70;99.90;;;;;;5096514;28;20016;-64
2021/09/10 03:39:19;;;;;;;10.50;7.50;;;19.70;99.90;;;;;;5095899;28;20093;-64
2021/09/10 03:41:45;;;;;;;8.43;7.55;;;19.70;99.90;;;;;;5096079;28;20069;-64
2021/09/10 03:44:11;;;;;;;10.50;7.47;;;19.70;99.90;;;;;;5096087;28;20020;-64
2021/09/10 03:46:36;;;;;;;9.23;7.82;;;19.80;99.90;;;;;;5095946;28;20028;-64
2021/09/10 03:49:02;;;;;;;8.45;7.07;;;19.70;99.90;;;;;;5095754;28;20036;-64
2021/09/10 03:51:28;;;;;;;10.63;7.43;;;19.70;99.90;;;;;;5077767;28;20086;-64
2021/09/10 03:53:53;;;;;;;7.85;7.03;;;19.70;99.90;;;;;;5077779;28;20086;-64
2021/09/10 03:56:19;;;;;;;9.30;7.15;;;19.70;99.90;;;;;;5096045;28;20493;-63
2021/09/10 03:58:45;;;;;;;9.82;6.78;;;19.70;99.90;;;;;;5077519;28;20020;-63
2021/09/10 04:01:10;;;;;;;11.48;7.43;;;19.70;99.90;;;;;;5095928;28;20031;-64
2021/09/10 04:03:36;;;;;;;9.93;7.53;;;19.60;99.90;;;;;;5095972;28;20571;-63
2021/09/10 04:06:02;;;;;;;8.82;6.85;;;19.60;99.90;;;;;;5095745;28;20024;-63
2021/09/10 04:08:27;;;;;;;8.40;7.15;;;19.60;99.90;;;;;;5077294;28;20024;-63
2021/09/10 04:10:53;;;;;;;14.35;8.75;;;19.50;99.90;;;;;;5077335;28;20095;-64
2021/09/10 04:13:19;;;;;;;10.65;8.85;;;19.50;99.90;;;;;;5096114;28;20095;-64
2021/09/10 04:15:44;;;;;;;10.05;8.20;;;19.50;99.90;;;;;;5095790;28;20090;-64
2021/09/10 04:18:10;;;;;;;10.30;7.60;;;19.40;99.90;;;;;;5095286;28;20028;-64
2021/09/10 04:20:35;;;;;;;9.23;7.38;;;19.30;99.90;;;;;;5095691;28;20047;-64
2021/09/10 04:23:01;;;;;;;8.10;7.25;;;19.30;99.90;;;;;;5095607;28;20024;-63
2021/09/10 04:25:27;;;;;;;10.63;8.30;;;19.30;99.90;;;;;;5095435;28;20107;-64
2021/09/10 04:27:53;;;;;;;8.95;7.82;;;19.30;99.90;;;;;;5095470;28;20107;-64
2021/09/10 04:30:19;;;;;;;10.77;7.78;;;19.30;99.90;;;;;;5095036;28;20032;-62
2021/09/10 04:32:45;;;;;;;10.38;7.72;;;19.20;99.90;;;;;;5095491;28;20099;-62
2021/09/10 04:35:11;;;;;;;10.48;8.45;;;19.20;99.90;;;;;;5095347;28;20103;-63
2021/09/10 04:37:38;;;;;;;11.25;8.40;;;19.20;99.90;;;;;;5095475;28;20016;-63
2021/09/10 04:40:05;;;;;;;12.05;8.90;;;19.10;99.90;;;;;;5095747;28;20031;-63
2021/09/10 04:42:31;;;;;;;13.38;8.82;;;19.10;99.90;;;;;;5096045;28;20027;-64
2021/09/10 04:44:56;;;;;;;12.43;8.50;;;19.00;99.90;;;;;;5077720;28;20334;-64
2021/09/10 04:47:25;;;;;;;9.68;8.32;;;19.00;99.90;;;;;;5095375;28;20059;-63
2021/09/10 04:49:50;;;;;;;10.07;8.88;;;18.90;99.90;;;;;;5094661;28;20036;-62
2021/09/10 04:52:16;;;;;;;16.13;8.98;;;18.80;99.90;;;;;;5094628;28;20039;-63
2021/09/10 04:54:42;;;;;;;12.10;8.80;;;18.80;99.90;;;;;;5094712;28;20047;-61
2021/09/10 04:57:07;;;;;;;10.00;8.30;;;18.70;99.90;;;;;;5094618;28;20032;-64
2021/09/10 04:59:33;;;;;;;11.30;8.18;;;18.70;99.90;;;;;;5094748;28;20036;-64
2021/09/10 05:01:58;;;;;;;12.35;9.00;;;18.70;99.90;;;;;;5094939;28;20099;-64
2021/09/10 05:04:24;;;;;;;12.63;8.95;;;18.60;99.90;;;;;;5094527;28;20453;-65
2021/09/10 05:06:51;;;;;;;13.68;8.80;;;18.60;99.90;;;;;;5094485;28;20473;-62
2021/09/10 05:09:17;;;;;;;11.38;8.57;;;18.60;99.90;;;;;;5094558;28;20044;-62
2021/09/10 05:11:43;;;;;;;11.85;8.35;;;18.60;99.90;;;;;;5094629;28;20521;-63
2021/09/10 05:14:09;;;;;;;9.48;8.02;;;18.60;99.90;;;;;;5094269;28;20032;-62
2021/09/10 05:16:36;;;;;;;11.65;7.80;;;18.60;99.90;;;;;;5094502;28;20028;-63
2021/09/10 05:19:02;;;;;;;10.35;8.05;;;18.60;99.90;;;;;;5094253;28;20343;-63
2021/09/10 05:21:27;;;;;;;10.95;7.97;;;18.50;99.90;;;;;;5094311;28;20013;-63
2021/09/10 05:23:53;;;;;;;9.02;7.53;;;18.50;99.90;;;;;;5095976;28;20099;-63
2021/09/10 05:26:19;;;;;;;12.43;7.82;;;18.70;99.90;;;;;;5094158;28;20028;-63
2021/09/10 05:28:45;;;;;;;10.77;7.50;;;18.80;99.90;;;;;;5094075;28;20028;-63
2021/09/10 05:31:11;;;;;;;14.35;7.90;;;18.80;99.90;;;;;;5094103;28;20027;-64
2021/09/10 05:33:37;;;;;;;11.77;7.40;;;18.90;99.90;;;;;;5093664;28;20096;-63
2021/09/10 05:36:03;;;;;;;11.25;7.25;;;19.10;99.90;;;;;;5093818;28;20020;-63
2021/09/10 05:38:29;;;;;;;11.13;7.22;;;19.10;99.90;;;;;;5093572;28;20385;-62
2021/09/10 05:40:54;;;;;;;10.50;7.53;;;19.30;99.90;;;;;;5094047;28;20032;-62
2021/09/10 05:43:20;;;;;;;7.43;6.65;;;19.20;99.90;;;;;;5094000;28;20169;-64
2021/09/10 05:45:46;;;;;;;10.00;7.20;;;19.20;99.90;;;;;;5094194;28;20108;-63
2021/09/10 05:48:11;;;;;;;10.00;7.78;;;19.20;99.90;;;;;;5093701;28;20024;-62
2021/09/10 05:50:37;;;;;;;11.05;7.47;;;19.20;99.90;;;;;;5094219;28;20038;-63
2021/09/10 05:53:03;;;;;;;8.45;7.13;;;19.10;99.90;;;;;;5092379;28;20020;-63
2021/09/10 05:55:28;;;;;;;9.10;7.20;;;19.20;99.90;;;;;;5092290;28;20488;-62
2021/09/10 05:57:54;;;;;;;12.05;7.15;;;19.30;99.90;;;;;;5092797;28;20028;-66
2021/09/10 06:00:20;;;;;;;9.90;6.45;;;19.30;99.90;;;;;;5091563;28;20035;-66
2021/09/10 06:02:45;;;;;;;11.82;7.57;;;19.30;99.90;;;;;;5092898;28;20523;-67
2021/09/10 06:05:11;;;;;;;7.97;6.63;;;19.50;99.90;;;;;;5092093;28;20104;-67
2021/09/10 06:07:37;;;;;;;9.07;7.25;;;19.50;99.90;;;;;;5092722;28;20501;-67
2021/09/10 06:10:03;;;;;;;8.93;7.30;;;19.50;99.90;;;;;;5092927;28;20036;-67
2021/09/10 06:12:29;;;;;;;15.45;7.57;;;19.50;99.90;;;;;;5093325;28;20073;-66
2021/09/10 06:14:54;;;;;;;8.68;7.05;;;19.50;99.90;;;;;;5092787;28;20465;-64
2021/09/10 06:17:20;;;;;;;13.50;7.40;;;19.60;99.90;;;;;;5092937;28;20039;-64
2021/09/10 06:19:45;;;;;;;10.77;7.35;;;19.60;99.90;;;;;;5092572;28;20047;-65
2021/09/10 06:22:13;;;;;;;9.90;7.13;;;19.60;99.90;;;;;;5092672;28;20055;-65
2021/09/10 06:24:39;;;;;;;9.88;7.68;;;19.60;99.90;;;;;;5092894;28;20024;-64
2021/09/10 06:27:04;;;;;;;;;;;19.60;99.90;;;;;;5093099;28;20023;-63
2021/09/10 06:29:30;;;;;;;11.38;7.30;;;19.60;99.90;;;;;;5093148;28;19904;-64
2021/09/10 06:31:56;;;;;;;8.32;6.95;;;19.60;99.90;;;;;;5092790;28;20032;-64
2021/09/10 06:34:22;;;;;;;10.75;7.35;;;19.60;99.90;;;;;;5092802;28;20028;-64
2021/09/10 06:36:50;;;;;;;8.68;6.90;;;19.70;99.90;;;;;;5093105;28;20437;-64
2021/09/10 06:39:16;;;;;;;9.57;6.78;;;19.70;99.90;;;;;;5092336;28;20024;-64
2021/09/10 06:41:43;;;;;;;10.38;7.35;;;19.70;99.90;;;;;;5092720;28;20024;-64
2021/09/10 06:44:09;;;;;;;11.80;7.55;;;19.80;99.90;;;;;;5093241;28;20111;-63
2021/09/10 06:46:35;;;;;;;9.60;7.47;;;19.80;99.90;;;;;;5092771;28;20496;-64
2021/09/10 06:49:00;;;;;;;9.38;7.38;;;19.90;99.90;;;;;;5092528;28;20036;-64
2021/09/10 06:51:27;;;;;;;8.63;7.40;;;19.90;99.90;;;;;;5075051;28;20119;-64
2021/09/10 06:53:53;;;;;;;11.20;7.28;;;20.00;99.90;;;;;;5074930;28;20477;-64
2021/09/10 06:56:18;;;;;;;11.07;8.35;;;20.00;99.90;;;;;;5093080;28;20024;-63
2021/09/10 06:58:44;;;;;;;12.82;7.80;;;20.10;99.90;;;;;;5092587;28;20352;-63
2021/09/10 07:01:11;;;;;;;8.57;7.68;;;20.30;99.90;;;;;;5092469;28;20091;-63
2021/09/10 07:03:37;;;;;;;9.95;8.25;;;20.30;99.90;;;;;;5093520;28;20028;-66
2021/09/10 07:06:02;;;;;;;10.52;7.72;;;20.40;99.90;;;;;;5096398;28;20385;-66
2021/09/10 07:08:28;;;;;;;11.93;7.40;;;20.50;99.90;;;;;;5096509;28;20099;-67
2021/09/10 07:10:54;;;;;;;10.55;7.68;;;20.60;99.90;;;;;;5096700;28;20418;-65
2021/09/10 07:13:20;;;;;;;11.75;7.85;;;20.70;99.90;;;;;;5097020;28;20046;-68
2021/09/10 07:15:46;;;;;;;14.75;9.30;;;20.70;99.90;;;;;;5096832;28;20028;-67
2021/09/10 07:18:11;;;;;;;10.13;7.25;;;20.80;99.90;;;;;;5096372;28;20046;-65
2021/09/10 07:20:37;;;;;;;12.32;7.55;;;20.80;99.90;;;;;;5096214;28;20519;-67
2021/09/10 07:23:03;;;;;;;;;;;20.80;99.90;;;;;;5096781;28;20030;-66
2021/09/10 07:25:29;;;;;;;14.85;7.75;;;20.80;99.90;;;;;;5077862;28;19904;-65
2021/09/10 07:27:54;;;;;;;14.50;7.60;;;20.90;99.90;;;;;;5096620;28;20017;-65
2021/09/10 07:30:20;;;;;;;9.45;6.78;;;20.90;99.90;;;;;;5077914;28;20028;-65
2021/09/10 07:32:45;;;;;;;12.43;7.50;;;21.00;99.90;;;;;;5096503;28;20060;-62
2021/09/10 07:35:11;;;;;;;11.05;7.20;;;21.10;99.90;;;;;;5096150;28;20492;-66
2021/09/10 07:37:37;;;;;;;9.85;7.43;;;21.10;99.90;;;;;;5096223;28;20020;-65
2021/09/10 07:40:05;;;;;;;11.05;7.38;;;21.30;99.90;;;;;;5077631;28;20035;-65
2021/09/10 07:42:30;;;;;;;11.13;7.20;;;21.50;99.90;;;;;;5095937;28;20099;-65
2021/09/10 07:44:56;;;;;;;11.13;6.85;;;21.60;99.90;;;;;;5095943;28;20086;-65
2021/09/10 07:47:22;;;;;;;9.90;7.07;;;21.80;99.90;;;;;;5095643;28;20034;-65
2021/09/10 07:49:47;;;;;;;9.73;7.18;;;21.90;99.90;;;;;;5095491;28;20032;-65
2021/09/10 07:52:13;;;;;;;11.32;6.97;;;21.90;99.90;;;;;;5096474;28;20086;-65
2021/09/10 07:54:39;;;;;;;10.48;6.80;;;21.90;99.90;;;;;;5095818;28;20020;-65
2021/09/10 07:57:05;;;;;;;8.88;6.88;;;21.80;99.90;;;;;;5095419;28;20028;-65
2021/09/10 07:59:30;;;;;;;11.77;6.72;;;21.90;99.90;;;;;;5095454;28;20412;-65
2021/09/10 08:01:56;;;;;;;8.48;6.47;;;22.00;99.90;;;;;;5077452;28;20032;-67
2021/09/10 08:04:22;;;;;;;7.20;6.40;;;21.90;99.90;;;;;;5095717;28;20042;-66
2021/09/10 08:06:47;;;;;;;11.07;6.78;;;21.80;99.90;;;;;;5095910;28;20028;-65
2021/09/10 08:09:13;;;;;;;11.10;6.70;;;21.70;99.90;;;;;;5095708;28;20024;-66
2021/09/10 08:11:39;;;;;;;9.40;6.55;;;21.70;99.90;;;;;;5095465;28;20546;-64
2021/09/10 08:14:07;;;;;;;7.28;6.07;;;21.60;99.90;;;;;;5095042;28;20062;-64
2021/09/10 08:16:34;;;;;;;7.53;6.32;;;21.60;99.90;;;;;;5094316;28;20038;-64
2021/09/10 08:19:00;;;;;;;8.82;6.57;;;21.60;99.90;;;;;;5094919;28;20061;-65
2021/09/10 08:21:26;;;;;;;8.73;6.47;;;21.60;99.90;;;;;;5094905;28;20069;-65
2021/09/10 08:23:51;;;;;;;7.63;5.57;;;21.70;99.90;;;;;;5095038;28;20024;-64
2021/09/10 08:26:17;;;;;;;10.77;7.40;;;22.00;99.90;;;;;;5094866;28;20362;-64
2021/09/10 08:28:43;;;;;;;;;;;22.30;99.90;;;;;;5076854;28;20484;-64
2021/09/10 08:31:09;;;;;;;7.85;5.50;;;22.70;99.90;;;;;;5095123;28;19984;-64
2021/09/10 08:33:34;;;;;;;;;;;22.90;99.90;;;;;;5095045;28;20024;-64
2021/09/10 08:36:02;;;;;;;7.13;5.50;;;23.20;99.90;;;;;;5076702;28;19910;-64
2021/09/10 08:38:27;;;;;;;6.75;5.20;;;23.60;99.90;;;;;;5094413;28;20031;-64
2021/09/10 08:40:55;;;;;;;;;;;23.90;99.90;;;;;;5095519;28;20087;-65
2021/09/10 08:43:22;;;;;;;6.93;5.53;;;24.10;99.80;;;;;;5095264;28;19904;-65
2021/09/10 08:45:48;;;;;;;6.88;5.60;;;24.40;99.30;;;;;;5094753;28;20021;-66
2021/09/10 08:48:16;;;;;;;;;;;24.80;98.60;;;;;;5095041;28;20047;-66
2021/09/10 08:50:41;;;;;;;8.75;5.55;;;24.90;98.50;;;;;;5094523;28;19908;-65
2021/09/10 08:53:08;;;;;;;;;;;25.10;98.40;;;;;;5094926;28;20031;-65
2021/09/10 08:55:34;;;;;;;7.25;5.63;;;25.00;98.10;;;;;;5094236;28;19908;-66
2021/09/10 08:58:00;;;;;;;;;;;24.80;98.30;;;;;;5095463;28;20430;-67
2021/09/10 09:00:28;;;;;;;6.82;5.75;;;24.60;98.30;;;;;;5095199;28;19904;-63
2021/09/10 09:03:06;;;;;;;9.27;6.00;;;24.30;98.40;;;;;;5076020;28;20028;-63
2021/09/10 09:05:32;;;;;;;9.25;6.43;;;24.10;99.10;;;;;;5094045;28;20495;-63
2021/09/10 09:08:14;;;;;;;7.25;6.50;;;23.90;99.30;;;;;;5093956;28;20449;-62
2021/09/10 09:11:03;;;;;;;8.02;6.00;;;23.80;99.60;;;;;;5075767;28;20039;-63
2021/09/10 09:13:40;;;;;;;10.38;6.20;;;24.00;99.70;;;;;;5094087;28;20024;-63
2021/09/10 09:16:15;;;;;;;6.72;5.70;;;24.50;99.10;;;;;;5094327;28;20016;-63
2021/09/10 09:18:43;;;;;;;7.78;5.75;;;25.00;98.10;;;;;;5076624;28;20115;-62
2021/09/10 09:21:08;;;;;;;8.05;6.07;;;24.90;97.60;;;;;;5094240;28;20103;-62
2021/09/10 09:23:35;;;;;;;;;;;24.70;98.00;;;;;;5094544;28;20190;-62
2021/09/10 09:26:00;;;;;;;7.93;6.20;;;24.30;98.60;;;;;;5093764;28;19986;-62
2021/09/10 09:28:27;;;;;;;;;;;24.00;99.00;;;;;;5094292;28;20460;-62
2021/09/10 09:31:01;;;;;;;7.60;6.10;;;23.90;99.30;;;;;;5075367;28;20353;-62
2021/09/10 09:33:30;;;;;;;8.82;6.10;;;24.30;98.80;;;;;;5093786;28;20035;-60
2021/09/10 09:35:57;;;;;;;7.53;5.88;;;24.80;98.20;;;;;;5093772;28;20089;-62
2021/09/10 09:38:26;;;;;;;7.72;5.80;;;25.50;97.20;;;;;;5093518;28;20089;-62
2021/09/10 09:40:54;;;;;;;9.88;5.65;;;26.40;95.80;;;;;;5093565;28;20016;-66
2021/09/10 09:43:22;;;;;;;7.22;6.00;;;27.70;94.50;;;;;;5093730;28;20380;-60
2021/09/10 09:45:52;;;;;;;6.72;5.28;;;28.20;93.40;;;;;;5093951;28;20404;-61
2021/09/10 09:48:20;;;;;;;7.28;5.45;;;28.10;93.20;;;;;;5075348;28;20078;-63
2021/09/10 09:50:48;;;;;;;7.07;6.28;;;27.30;93.80;;;;;;5075552;28;20020;-64
2021/09/10 09:53:15;;;;;;;6.03;5.35;;;26.90;94.70;;;;;;5093655;28;20023;-64
2021/09/10 09:55:46;;;;;;;8.48;5.93;;;26.50;95.20;;;;;;5093174;28;20051;-65
2021/09/10 09:58:14;;;;;;;6.97;5.50;;;26.30;95.30;;;;;;5093167;28;20097;-66
2021/09/10 10:00:41;;;;;;;7.28;5.72;;;26.10;95.30;;;;;;5093133;28;20016;-65
2021/09/10 10:03:07;;;;;;;7.20;5.55;;;26.00;95.20;;;;;;5093582;28;20024;-65
2021/09/10 10:06:04;;;;;;;7.80;5.80;;;25.60;95.70;;;;;;5092959;28;20020;-61
2021/09/10 10:08:54;;;;;;;7.13;5.40;;;25.10;95.70;;;;;;5086596;28;20039;-61
2021/09/10 10:11:25;;;;;;;8.77;6.18;;;24.70;96.50;;;;;;5074909;28;20031;-60
2021/09/10 10:13:59;;;;;;;9.68;6.25;;;24.70;96.90;;;;;;5093097;28;20028;-60
2021/09/10 10:16:43;;;;;;;10.00;6.18;;;25.00;96.90;;;;;;5074833;28;20034;-61
2021/09/10 10:19:36;;;;;;;6.95;6.00;;;25.80;96.10;;;;;;5092948;28;20024;-61
2021/09/10 10:22:10;;;;;;;9.15;6.03;;;26.10;95.80;;;;;;5092809;28;20051;-62
2021/09/10 10:24:58;;;;;;;8.13;6.70;;;26.10;95.40;;;;;;5076176;28;20411;-63
2021/09/10 10:27:30;;;;;;;6.60;5.70;;;26.10;95.10;;;;;;5094144;28;20150;-58
2021/09/10 10:29:56;;;;;;;7.80;4.97;;;26.00;95.30;;;;;;5093668;28;20027;-61
2021/09/10 10:32:32;;;;;;;8.40;5.47;;;25.90;95.20;;;;;;5093045;28;20499;-60
2021/09/10 10:35:32;;;;;;;6.35;5.10;;;25.60;95.70;;;;;;5093126;28;20032;-61
2021/09/10 10:38:06;;;;;;;8.38;5.65;;;25.90;95.80;;;;;;5092340;28;20472;-61
2021/09/10 10:40:39;;;;;;;7.38;5.72;;;26.50;95.60;;;;;;5092968;28;20024;-61
2021/09/10 10:43:11;;;;;;;7.57;5.55;;;27.20;95.30;;;;;;5075160;28;20039;-61
2021/09/10 10:45:42;;;;;;;7.10;5.53;;;27.80;94.70;;;;;;5093213;28;20039;-60
2021/09/10 10:48:29;;;;;;;7.18;5.35;;;27.90;94.70;;;;;;5093118;28;20055;-61
2021/09/10 10:50:56;;;;;;;6.38;5.22;;;27.30;95.30;;;;;;5094553;28;20020;-62
2021/09/10 10:53:22;;;;;;;7.13;5.75;;;26.40;96.00;;;;;;5094210;28;20034;-61
2021/09/10 10:55:48;;;;;;;8.15;6.22;;;25.90;96.90;;;;;;5094525;28;20099;-62
2021/09/10 10:58:25;;;;;;;9.63;7.18;;;25.70;97.70;;;;;;5075295;28;20024;-61
2021/09/10 11:01:02;;;;;;;8.82;7.20;;;25.50;98.00;;;;;;5092859;28;20031;-61
2021/09/10 11:03:27;;;;;;;6.95;6.22;;;25.40;98.00;;;;;;5093174;28;20043;-60
2021/09/10 11:05:55;;;;;;;;;;;25.20;98.60;;;;;;5093313;28;20362;-62
2021/09/10 11:08:44;;;;;;;8.93;7.10;;;25.10;99.40;;;;;;5093227;28;19911;-63
2021/09/10 11:11:10;;;;;;;7.70;6.60;;;24.90;99.80;;;;;;5092786;28;20024;-61
2021/09/10 11:13:41;;;;;;;;;;;24.80;99.80;;;;;;5075417;28;20036;-62
2021/09/10 11:16:09;;;;;;;11.57;7.15;;;24.70;99.80;;;;;;5093134;28;19931;-62
2021/09/10 11:18:37;;;;;;;13.23;7.22;;;24.60;99.90;;;;;;5093117;28;20610;-62
2021/09/10 11:21:07;;;;;;;9.75;6.95;;;24.70;99.80;;;;;;5092250;28;20024;-62
2021/09/10 11:23:36;;;;;;;7.55;6.75;;;24.70;99.80;;;;;;5074619;28;20025;-63
2021/09/10 11:26:05;;;;;;;7.85;6.40;;;24.80;99.90;;;;;;5074316;28;20035;-61
2021/09/10 11:28:33;;;;;;;8.23;6.65;;;25.00;99.70;;;;;;5092407;28;20028;-63
2021/09/10 11:30:59;;;;;;;8.77;6.60;;;25.20;99.60;;;;;;5092185;28;20032;-62
2021/09/10 11:33:24;;;;;;;;;;;25.50;98.80;;;;;;5092667;28;20086;-61
2021/09/10 11:35:52;;;;;;;10.88;7.20;;;25.80;98.40;;;;;;5092140;28;20009;-61
2021/09/10 11:38:19;;;;;;;7.70;6.75;;;26.00;97.90;;;;;;5092269;28;20467;-62
2021/09/10 11:40:46;;;;;;;7.50;6.78;;;26.00;97.80;;;;;;5091929;28;20024;-61
2021/09/10 11:43:20;;;;;;;8.02;6.38;;;26.30;97.30;;;;;;5092503;28;20047;-62
2021/09/10 11:45:49;;;;;;;7.95;6.75;;;26.20;96.90;;;;;;5073937;28;20089;-61
2021/09/10 11:48:44;;;;;;;6.85;6.00;;;26.20;97.10;;;;;;5092354;28;20036;-60
2021/09/10 11:51:12;;;;;;;7.28;6.32;;;26.10;97.40;;;;;;5086407;28;20040;-61
2021/09/10 11:53:47;;;;;;;9.32;7.25;;;26.20;97.30;;;;;;5095940;28;20532;-60
2021/09/10 11:56:29;;;;;;;8.98;7.15;;;26.30;97.50;;;;;;5095587;28;20081;-61
2021/09/10 11:58:54;;;;;;;10.57;7.50;;;26.40;97.40;;;;;;5095932;28;20028;-62
2021/09/10 12:01:23;;;;;;;7.38;6.57;;;26.60;97.00;;;;;;5096100;28;20077;-61
2021/09/10 12:03:53;;;;;;;7.63;6.45;;;26.70;97.00;;;;;;5095732;28;20012;-61
2021/09/10 12:06:20;;;;;;;29.73;26.80;;;26.80;97.00;;;;;;5095718;28;20012;-60
2021/09/10 12:09:10;;;;;;;10.75;6.65;;;26.50;96.40;;;;;;5095814;28;20476;-60
2021/09/10 12:11:37;;;;;;;7.40;6.70;;;26.40;97.30;;;;;;5095798;28;20111;-60
2021/09/10 12:14:14;;;;;;;6.97;6.28;;;26.30;97.80;;;;;;5095687;28;20106;-60
2021/09/10 12:16:40;;;;;;;6.75;6.03;;;26.10;97.80;;;;;;5095442;28;20443;-59
2021/09/10 12:19:06;;;;;;;8.73;6.45;;;25.80;98.20;;;;;;5095209;28;20047;-61
2021/09/10 12:21:34;;;;;;;7.43;6.72;;;25.50;98.80;;;;;;5098753;28;20016;-59
2021/09/10 12:24:11;;;;;;;8.25;7.00;;;25.30;99.20;;;;;;5077266;28;20020;-61
2021/09/10 12:26:55;;;;;;;9.23;6.80;;;25.00;99.40;;;;;;5095634;28;20017;-60
2021/09/10 12:29:23;;;;;;;11.20;7.78;;;25.00;99.70;;;;;;5095325;28;20054;-60
2021/09/10 12:31:49;;;;;;;16.45;10.57;;;25.00;99.70;;;;;;5095624;28;20016;-61
2021/09/10 12:34:14;;;;;;;;;;;25.00;99.70;;;;;;5095971;28;20397;-63
2021/09/10 12:36:40;;;;;;;8.98;8.07;;;24.90;99.70;;;;;;5095261;28;19904;-61
2021/09/10 12:39:05;;;;;;;;;;;24.90;99.40;;;;;;5095219;28;20095;-65
2021/09/10 12:41:31;;;;;;;13.10;9.93;;;24.90;99.40;;;;;;5095448;28;20415;-59
2021/09/10 12:43:56;;;;;;;7.40;6.68;;;24.90;98.90;;;;;;5095416;28;20107;-63
2021/09/10 12:46:22;;;;;;;10.07;6.60;;;24.90;99.20;;;;;;5095441;28;20020;-62
2021/09/10 12:48:48;;;;;;;;;;;25.00;99.10;;;;;;5096829;28;20028;-63
2021/09/10 12:51:13;;;;;;;9.15;7.10;;;24.90;99.20;;;;;;5095577;28;19908;-62